sensor_id;sensor_type;location;lat;lon;timestamp;pressure;altitude;pressure_sealevel;temperature;humidity
74627;BME280;63132;52.268;5.192;2023-07-22T00:00:25;101299.81;;;15.85;67.67
74627;BME280;63132;52.268;5.192;2023-07-22T00:02:51;101304.47;;;15.83;67.88
74627;BME280;63132;52.268;5.192;2023-07-22T00:05:16;101300.34;;;15.89;68.06
74627;BME280;63132;52.268;5.192;2023-07-22T00:07:47;101296.16;;;15.86;68.01
74627;BME280;63132;52.268;5.192;2023-07-22T00:10:12;101292.59;;;15.86;68.29
74627;BME280;63132;52.268;5.192;2023-07-22T00:12:38;101290.31;;;15.91;68.30
74627;BME280;63132;52.268;5.192;2023-07-22T00:15:03;101296.09;;;15.96;68.24
74627;BME280;63132;52.268;5.192;2023-07-22T00:17:28;101295.81;;;16.00;68.10
74627;BME280;63132;52.268;5.192;2023-07-22T00:19:54;101290.88;;;16.05;67.75
74627;BME280;63132;52.268;5.192;2023-07-22T00:22:21;101284.81;;;16.03;68.17
74627;BME280;63132;52.268;5.192;2023-07-22T00:24:46;101280.16;;;16.05;68.13
74627;BME280;63132;52.268;5.192;2023-07-22T00:27:12;101289.28;;;16.12;68.16
74627;BME280;63132;52.268;5.192;2023-07-22T00:29:37;101294.09;;;16.08;68.17
74627;BME280;63132;52.268;5.192;2023-07-22T00:32:03;101284.94;;;16.11;68.14
74627;BME280;63132;52.268;5.192;2023-07-22T00:34:30;101291.28;;;16.10;68.01
74627;BME280;63132;52.268;5.192;2023-07-22T00:36:56;101293.09;;;16.09;68.10
74627;BME280;63132;52.268;5.192;2023-07-22T00:39:21;101283.22;;;16.10;68.24
74627;BME280;63132;52.268;5.192;2023-07-22T00:41:46;101287.59;;;16.11;68.21
74627;BME280;63132;52.268;5.192;2023-07-22T00:44:12;101288.72;;;16.18;67.74
74627;BME280;63132;52.268;5.192;2023-07-22T00:46:38;101283.88;;;16.22;67.70
74627;BME280;63132;52.268;5.192;2023-07-22T00:49:06;101281.63;;;16.17;68.19
74627;BME280;63132;52.268;5.192;2023-07-22T00:51:32;101264.78;;;16.53;66.93
74627;BME280;63132;52.268;5.192;2023-07-22T00:53:57;101264.69;;;16.63;66.39
74627;BME280;63132;52.268;5.192;2023-07-22T00:56:22;101270.22;;;16.62;66.39
74627;BME280;63132;52.268;5.192;2023-07-22T00:58:48;101267.31;;;16.55;66.63
74627;BME280;63132;52.268;5.192;2023-07-22T01:01:13;101271.88;;;16.44;66.92
74627;BME280;63132;52.268;5.192;2023-07-22T01:03:38;101266.13;;;16.39;67.35
74627;BME280;63132;52.268;5.192;2023-07-22T01:06:04;101263.19;;;16.32;67.56
74627;BME280;63132;52.268;5.192;2023-07-22T01:08:29;101263.19;;;15.94;68.66
74627;BME280;63132;52.268;5.192;2023-07-22T01:10:55;101269.25;;;16.06;68.88
74627;BME280;63132;52.268;5.192;2023-07-22T01:13:21;101257.50;;;15.69;69.87
74627;BME280;63132;52.268;5.192;2023-07-22T01:15:46;101255.81;;;15.58;70.12
74627;BME280;63132;52.268;5.192;2023-07-22T01:18:12;101258.09;;;15.53;70.29
74627;BME280;63132;52.268;5.192;2023-07-22T01:20:37;101250.22;;;15.42;70.46
74627;BME280;63132;52.268;5.192;2023-07-22T01:23:03;101246.84;;;15.39;70.61
74627;BME280;63132;52.268;5.192;2023-07-22T01:25:29;101247.22;;;15.65;69.90
74627;BME280;63132;52.268;5.192;2023-07-22T01:27:54;101244.28;;;15.48;69.71
74627;BME280;63132;52.268;5.192;2023-07-22T01:30:20;101240.94;;;15.26;70.53
74627;BME280;63132;52.268;5.192;2023-07-22T01:32:49;101238.97;;;15.18;70.71
74627;BME280;63132;52.268;5.192;2023-07-22T01:35:15;101243.50;;;15.08;71.10
74627;BME280;63132;52.268;5.192;2023-07-22T01:37:41;101242.94;;;15.04;71.21
74627;BME280;63132;52.268;5.192;2023-07-22T01:40:07;101246.03;;;15.19;71.00
74627;BME280;63132;52.268;5.192;2023-07-22T01:42:39;101246.44;;;15.24;70.71
74627;BME280;63132;52.268;5.192;2023-07-22T01:45:05;101237.84;;;15.31;70.39
74627;BME280;63132;52.268;5.192;2023-07-22T01:47:37;101236.69;;;15.33;70.16
74627;BME280;63132;52.268;5.192;2023-07-22T01:50:03;101231.47;;;15.32;70.07
74627;BME280;63132;52.268;5.192;2023-07-22T01:52:29;101237.69;;;15.12;71.08
74627;BME280;63132;52.268;5.192;2023-07-22T01:54:54;101235.00;;;15.22;70.72
74627;BME280;63132;52.268;5.192;2023-07-22T01:57:20;101238.00;;;14.89;71.95
74627;BME280;63132;52.268;5.192;2023-07-22T01:59:45;101237.28;;;14.87;72.19
74627;BME280;63132;52.268;5.192;2023-07-22T02:02:11;101233.22;;;14.83;72.50
74627;BME280;63132;52.268;5.192;2023-07-22T02:04:36;101231.09;;;14.87;72.58
74627;BME280;63132;52.268;5.192;2023-07-22T02:07:01;101231.09;;;14.87;72.50
74627;BME280;63132;52.268;5.192;2023-07-22T02:09:26;101230.25;;;14.86;72.60
74627;BME280;63132;52.268;5.192;2023-07-22T02:11:52;101230.09;;;14.88;72.51
74627;BME280;63132;52.268;5.192;2023-07-22T02:14:18;101233.50;;;14.90;72.48
74627;BME280;63132;52.268;5.192;2023-07-22T02:16:43;101225.16;;;14.93;72.59
74627;BME280;63132;52.268;5.192;2023-07-22T02:19:09;101224.88;;;14.86;72.72
74627;BME280;63132;52.268;5.192;2023-07-22T02:21:34;101227.84;;;14.93;72.73
74627;BME280;63132;52.268;5.192;2023-07-22T02:23:59;101226.31;;;14.90;72.82
74627;BME280;63132;52.268;5.192;2023-07-22T02:26:24;101228.84;;;14.92;72.86
74627;BME280;63132;52.268;5.192;2023-07-22T02:28:50;101225.44;;;14.90;73.02
74627;BME280;63132;52.268;5.192;2023-07-22T02:31:15;101218.13;;;14.92;73.13
74627;BME280;63132;52.268;5.192;2023-07-22T02:33:40;101218.13;;;14.92;72.92
74627;BME280;63132;52.268;5.192;2023-07-22T02:36:06;101216.84;;;14.96;73.14
74627;BME280;63132;52.268;5.192;2023-07-22T02:38:31;101208.53;;;14.99;72.80
74627;BME280;63132;52.268;5.192;2023-07-22T02:41:03;101211.22;;;14.99;73.01
74627;BME280;63132;52.268;5.192;2023-07-22T02:43:31;101207.00;;;14.97;73.01
74627;BME280;63132;52.268;5.192;2023-07-22T02:45:56;101200.50;;;14.99;72.91
74627;BME280;63132;52.268;5.192;2023-07-22T02:48:22;101204.44;;;14.95;73.11
74627;BME280;63132;52.268;5.192;2023-07-22T02:50:48;101202.47;;;14.97;72.88
74627;BME280;63132;52.268;5.192;2023-07-22T02:53:13;101198.25;;;14.95;73.16
74627;BME280;63132;52.268;5.192;2023-07-22T02:55:39;101197.81;;;14.99;73.34
74627;BME280;63132;52.268;5.192;2023-07-22T02:58:04;101200.50;;;14.99;73.13
74627;BME280;63132;52.268;5.192;2023-07-22T03:00:30;101203.03;;;15.01;73.12
74627;BME280;63132;52.268;5.192;2023-07-22T03:02:56;101198.53;;;15.01;73.06
74627;BME280;63132;52.268;5.192;2023-07-22T03:05:31;101204.31;;;14.97;73.01
74627;BME280;63132;52.268;5.192;2023-07-22T03:07:57;101208.13;;;14.94;73.11
74627;BME280;63132;52.268;5.192;2023-07-22T03:10:23;101207.25;;;14.94;73.16
74627;BME280;63132;52.268;5.192;2023-07-22T03:12:50;101206.69;;;14.90;73.19
74627;BME280;63132;52.268;5.192;2023-07-22T03:15:20;101205.28;;;14.86;73.15
74627;BME280;63132;52.268;5.192;2023-07-22T03:17:45;101209.66;;;14.87;73.19
74627;BME280;63132;52.268;5.192;2023-07-22T03:20:11;101210.66;;;14.86;73.25
74627;BME280;63132;52.268;5.192;2023-07-22T03:22:43;101211.34;;;14.88;73.18
74627;BME280;63132;52.268;5.192;2023-07-22T03:25:09;101215.03;;;14.87;73.25
74627;BME280;63132;52.268;5.192;2023-07-22T03:27:35;101214.88;;;14.88;73.36
74627;BME280;63132;52.268;5.192;2023-07-22T03:30:02;101215.16;;;14.95;73.29
74627;BME280;63132;52.268;5.192;2023-07-22T03:32:27;101213.75;;;14.91;73.17
74627;BME280;63132;52.268;5.192;2023-07-22T03:34:52;101212.75;;;14.92;73.24
74627;BME280;63132;52.268;5.192;2023-07-22T03:37:17;101213.06;;;14.89;73.26
74627;BME280;63132;52.268;5.192;2023-07-22T03:39:45;101211.34;;;14.88;73.40
74627;BME280;63132;52.268;5.192;2023-07-22T03:42:10;101207.13;;;14.95;73.51
74627;BME280;63132;52.268;5.192;2023-07-22T03:44:36;101210.22;;;15.00;73.49
74627;BME280;63132;52.268;5.192;2023-07-22T03:47:01;101215.84;;;15.07;73.53
74627;BME280;63132;52.268;5.192;2023-07-22T03:49:26;101217.13;;;15.13;73.62
74627;BME280;63132;52.268;5.192;2023-07-22T03:51:52;101213.56;;;15.22;73.51
74627;BME280;63132;52.268;5.192;2023-07-22T03:54:17;101216.53;;;15.29;73.37
74627;BME280;63132;52.268;5.192;2023-07-22T03:56:42;101223.16;;;15.35;73.32
74627;BME280;63132;52.268;5.192;2023-07-22T03:59:08;101223.50;;;15.60;71.99
74627;BME280;63132;52.268;5.192;2023-07-22T04:01:33;101230.69;;;15.69;71.46
74627;BME280;63132;52.268;5.192;2023-07-22T04:03:58;101223.31;;;15.71;71.32
74627;BME280;63132;52.268;5.192;2023-07-22T04:06:23;101215.97;;;15.73;71.28
74627;BME280;63132;52.268;5.192;2023-07-22T04:08:49;101217.94;;;15.71;71.38
74627;BME280;63132;52.268;5.192;2023-07-22T04:11:14;101219.78;;;15.81;70.95
74627;BME280;63132;52.268;5.192;2023-07-22T04:13:39;101221.63;;;15.80;71.16
74627;BME280;63132;52.268;5.192;2023-07-22T04:16:05;101223.56;;;15.88;71.16
74627;BME280;63132;52.268;5.192;2023-07-22T04:18:30;101212.81;;;15.88;71.36
74627;BME280;63132;52.268;5.192;2023-07-22T04:20:59;101219.88;;;15.89;71.28
74627;BME280;63132;52.268;5.192;2023-07-22T04:23:25;101214.78;;;15.96;71.23
74627;BME280;63132;52.268;5.192;2023-07-22T04:25:51;101219.28;;;15.95;70.98
74627;BME280;63132;52.268;5.192;2023-07-22T04:28:16;101212.22;;;16.04;71.01
74627;BME280;63132;52.268;5.192;2023-07-22T04:30:42;101216.13;;;16.10;70.72
74627;BME280;63132;52.268;5.192;2023-07-22T04:33:07;101220.06;;;16.16;70.83
74627;BME280;63132;52.268;5.192;2023-07-22T04:35:40;101210.94;;;16.27;70.85
74627;BME280;63132;52.268;5.192;2023-07-22T04:38:06;101217.13;;;16.37;70.58
74627;BME280;63132;52.268;5.192;2023-07-22T04:40:31;101218.72;;;16.48;70.51
74627;BME280;63132;52.268;5.192;2023-07-22T04:42:57;101219.25;;;16.52;69.64
74627;BME280;63132;52.268;5.192;2023-07-22T04:45:22;101210.97;;;16.63;70.05
74627;BME280;63132;52.268;5.192;2023-07-22T04:47:51;101212.31;;;16.77;69.44
74627;BME280;63132;52.268;5.192;2023-07-22T04:50:16;101219.88;;;16.82;69.19
74627;BME280;63132;52.268;5.192;2023-07-22T04:52:46;101214.97;;;16.96;68.82
74627;BME280;63132;52.268;5.192;2023-07-22T04:55:12;101212.69;;;17.01;68.15
74627;BME280;63132;52.268;5.192;2023-07-22T04:57:38;101213.97;;;16.97;67.81
74627;BME280;63132;52.268;5.192;2023-07-22T05:00:04;101211.59;;;16.93;68.26
74627;BME280;63132;52.268;5.192;2023-07-22T05:02:29;101207.31;;;17.01;68.02
74627;BME280;63132;52.268;5.192;2023-07-22T05:04:58;101202.94;;;17.18;67.56
74627;BME280;63132;52.268;5.192;2023-07-22T05:07:23;101202.97;;;17.26;67.43
74627;BME280;63132;52.268;5.192;2023-07-22T05:09:49;101199.66;;;17.33;67.04
74627;BME280;63132;52.268;5.192;2023-07-22T05:12:14;101208.56;;;17.33;67.24
74627;BME280;63132;52.268;5.192;2023-07-22T05:14:40;101209.88;;;17.56;66.72
74627;BME280;63132;52.268;5.192;2023-07-22T05:17:05;101205.03;;;17.59;66.47
74627;BME280;63132;52.268;5.192;2023-07-22T05:19:30;101205.59;;;17.71;66.39
74627;BME280;63132;52.268;5.192;2023-07-22T05:21:56;101203.94;;;17.79;66.25
74627;BME280;63132;52.268;5.192;2023-07-22T05:24:21;101208.19;;;17.90;65.78
74627;BME280;63132;52.268;5.192;2023-07-22T05:26:47;101210.16;;;17.79;66.87
74627;BME280;63132;52.268;5.192;2023-07-22T05:29:12;101209.22;;;17.89;66.80
74627;BME280;63132;52.268;5.192;2023-07-22T05:31:38;101205.19;;;17.93;66.85
74627;BME280;63132;52.268;5.192;2023-07-22T05:34:03;101214.19;;;17.83;66.84
74627;BME280;63132;52.268;5.192;2023-07-22T05:36:29;101208.19;;;17.90;66.63
74627;BME280;63132;52.268;5.192;2023-07-22T05:38:54;101215.94;;;17.93;67.39
74627;BME280;63132;52.268;5.192;2023-07-22T05:41:20;101208.88;;;18.35;65.88
74627;BME280;63132;52.268;5.192;2023-07-22T05:43:45;101209.78;;;18.69;64.82
74627;BME280;63132;52.268;5.192;2023-07-22T05:46:10;101201.84;;;18.76;64.62
74627;BME280;63132;52.268;5.192;2023-07-22T05:48:36;101209.44;;;18.89;64.76
74627;BME280;63132;52.268;5.192;2023-07-22T05:51:01;101212.16;;;18.97;64.20
74627;BME280;63132;52.268;5.192;2023-07-22T05:53:27;101211.81;;;19.17;64.69
74627;BME280;63132;52.268;5.192;2023-07-22T05:55:53;101217.19;;;19.34;63.21
74627;BME280;63132;52.268;5.192;2023-07-22T05:58:18;101210.81;;;19.26;64.30
74627;BME280;63132;52.268;5.192;2023-07-22T06:00:43;101199.31;;;19.33;63.85
74627;BME280;63132;52.268;5.192;2023-07-22T06:03:09;101198.28;;;19.42;63.20
74627;BME280;63132;52.268;5.192;2023-07-22T06:05:35;101202.81;;;19.50;63.39
74627;BME280;63132;52.268;5.192;2023-07-22T06:08:00;101192.88;;;19.59;63.46
74627;BME280;63132;52.268;5.192;2023-07-22T06:10:25;101202.75;;;19.75;62.93
74627;BME280;63132;52.268;5.192;2023-07-22T06:12:51;101201.22;;;19.72;63.25
74627;BME280;63132;52.268;5.192;2023-07-22T06:15:16;101203.22;;;19.87;62.70
74627;BME280;63132;52.268;5.192;2023-07-22T06:17:42;101201.38;;;19.87;62.99
74627;BME280;63132;52.268;5.192;2023-07-22T06:20:08;101198.00;;;20.26;61.98
74627;BME280;63132;52.268;5.192;2023-07-22T06:22:33;101194.16;;;20.43;61.52
74627;BME280;63132;52.268;5.192;2023-07-22T06:24:59;101195.00;;;20.67;60.40
74627;BME280;63132;52.268;5.192;2023-07-22T06:27:24;101190.00;;;20.79;60.30
74627;BME280;63132;52.268;5.192;2023-07-22T06:29:49;101195.59;;;21.01;59.74
74627;BME280;63132;52.268;5.192;2023-07-22T06:32:15;101196.22;;;21.27;59.37
74627;BME280;63132;52.268;5.192;2023-07-22T06:34:40;101183.59;;;21.04;58.86
74627;BME280;63132;52.268;5.192;2023-07-22T06:37:05;101179.31;;;21.25;59.17
74627;BME280;63132;52.268;5.192;2023-07-22T06:39:31;101184.97;;;21.00;59.81
74627;BME280;63132;52.268;5.192;2023-07-22T06:41:56;101183.16;;;21.31;59.41
74627;BME280;63132;52.268;5.192;2023-07-22T06:44:21;101183.50;;;21.58;58.42
74627;BME280;63132;52.268;5.192;2023-07-22T06:46:47;101185.56;;;21.56;58.59
74627;BME280;63132;52.268;5.192;2023-07-22T06:49:12;101186.69;;;21.61;58.34
74627;BME280;63132;52.268;5.192;2023-07-22T06:51:37;101193.31;;;21.74;57.86
74627;BME280;63132;52.268;5.192;2023-07-22T06:54:03;101192.72;;;21.18;59.41
74627;BME280;63132;52.268;5.192;2023-07-22T06:56:28;101191.53;;;21.36;58.72
74627;BME280;63132;52.268;5.192;2023-07-22T06:58:54;101190.81;;;21.57;58.49
74627;BME280;63132;52.268;5.192;2023-07-22T07:01:19;101179.16;;;21.41;58.74
74627;BME280;63132;52.268;5.192;2023-07-22T07:03:44;101181.00;;;21.56;58.90
74627;BME280;63132;52.268;5.192;2023-07-22T07:06:11;101174.19;;;21.30;59.24
74627;BME280;63132;52.268;5.192;2023-07-22T07:08:36;101180.53;;;21.52;58.70
74627;BME280;63132;52.268;5.192;2023-07-22T07:11:02;101171.94;;;21.49;59.30
74627;BME280;63132;52.268;5.192;2023-07-22T07:13:27;101177.16;;;21.81;58.83
74627;BME280;63132;52.268;5.192;2023-07-22T07:15:54;101173.94;;;22.07;57.52
74627;BME280;63132;52.268;5.192;2023-07-22T07:18:19;101177.06;;;21.74;57.57
74627;BME280;63132;52.268;5.192;2023-07-22T07:20:45;101170.44;;;22.29;56.67
74627;BME280;63132;52.268;5.192;2023-07-22T07:23:12;101171.97;;;22.38;57.29
74627;BME280;63132;52.268;5.192;2023-07-22T07:25:38;101175.34;;;22.40;56.39
74627;BME280;63132;52.268;5.192;2023-07-22T07:28:04;101173.81;;;22.53;55.96
74627;BME280;63132;52.268;5.192;2023-07-22T07:30:29;101190.22;;;22.66;56.02
74627;BME280;63132;52.268;5.192;2023-07-22T07:32:55;101180.41;;;22.28;56.42
74627;BME280;63132;52.268;5.192;2023-07-22T07:35:20;101181.06;;;22.30;56.66
74627;BME280;63132;52.268;5.192;2023-07-22T07:37:46;101185.47;;;21.94;57.62
74627;BME280;63132;52.268;5.192;2023-07-22T07:40:12;101193.78;;;21.77;57.79
74627;BME280;63132;52.268;5.192;2023-07-22T07:42:37;101185.75;;;21.39;58.40
74627;BME280;63132;52.268;5.192;2023-07-22T07:45:03;101191.56;;;21.81;57.65
74627;BME280;63132;52.268;5.192;2023-07-22T07:47:29;101185.72;;;22.15;56.73
74627;BME280;63132;52.268;5.192;2023-07-22T07:49:55;101183.53;;;22.25;57.02
74627;BME280;63132;52.268;5.192;2023-07-22T07:52:21;101185.53;;;22.16;56.19
74627;BME280;63132;52.268;5.192;2023-07-22T07:54:47;101176.44;;;22.24;56.12
74627;BME280;63132;52.268;5.192;2023-07-22T07:57:13;101176.19;;;22.85;55.08
74627;BME280;63132;52.268;5.192;2023-07-22T07:59:38;101173.41;;;23.35;53.36
74627;BME280;63132;52.268;5.192;2023-07-22T08:02:04;101169.97;;;24.04;52.44
74627;BME280;63132;52.268;5.192;2023-07-22T08:04:34;101163.41;;;24.41;50.92
74627;BME280;63132;52.268;5.192;2023-07-22T08:06:59;101168.00;;;24.33;50.59
74627;BME280;63132;52.268;5.192;2023-07-22T08:09:24;101169.47;;;24.90;49.76
74627;BME280;63132;52.268;5.192;2023-07-22T08:11:50;101159.00;;;24.80;49.83
74627;BME280;63132;52.268;5.192;2023-07-22T08:14:15;101156.09;;;24.48;50.11
74627;BME280;63132;52.268;5.192;2023-07-22T08:16:42;101154.78;;;24.23;50.60
74627;BME280;63132;52.268;5.192;2023-07-22T08:19:07;101154.19;;;24.69;49.79
74627;BME280;63132;52.268;5.192;2023-07-22T08:21:32;101160.88;;;25.27;48.53
74627;BME280;63132;52.268;5.192;2023-07-22T08:23:58;101167.19;;;24.80;48.40
74627;BME280;63132;52.268;5.192;2023-07-22T08:26:23;101167.50;;;24.16;48.96
74627;BME280;63132;52.268;5.192;2023-07-22T08:28:49;101160.69;;;24.34;48.72
74627;BME280;63132;52.268;5.192;2023-07-22T08:31:15;101172.59;;;24.26;49.14
74627;BME280;63132;52.268;5.192;2023-07-22T08:33:40;101164.47;;;24.87;48.17
74627;BME280;63132;52.268;5.192;2023-07-22T08:36:06;101169.97;;;23.97;50.39
74627;BME280;63132;52.268;5.192;2023-07-22T08:38:31;101171.09;;;24.23;50.06
74627;BME280;63132;52.268;5.192;2023-07-22T08:40:57;101165.53;;;24.73;48.64
74627;BME280;63132;52.268;5.192;2023-07-22T08:43:22;101164.25;;;25.16;48.80
74627;BME280;63132;52.268;5.192;2023-07-22T08:45:49;101160.72;;;25.09;47.85
74627;BME280;63132;52.268;5.192;2023-07-22T08:48:17;101156.69;;;25.32;47.12
74627;BME280;63132;52.268;5.192;2023-07-22T08:50:52;101151.31;;;24.70;48.68
74627;BME280;63132;52.268;5.192;2023-07-22T08:53:18;101158.59;;;24.77;48.51
74627;BME280;63132;52.268;5.192;2023-07-22T08:55:47;101161.91;;;25.33;47.88
74627;BME280;63132;52.268;5.192;2023-07-22T08:58:15;101160.28;;;24.85;48.03
74627;BME280;63132;52.268;5.192;2023-07-22T09:00:42;101158.19;;;24.66;47.96
74627;BME280;63132;52.268;5.192;2023-07-22T09:03:08;101165.28;;;24.33;48.42
74627;BME280;63132;52.268;5.192;2023-07-22T09:05:35;101168.16;;;24.18;49.05
74627;BME280;63132;52.268;5.192;2023-07-22T09:08:02;101163.38;;;23.36;49.94
74627;BME280;63132;52.268;5.192;2023-07-22T09:10:28;101163.50;;;23.21;50.10
74627;BME280;63132;52.268;5.192;2023-07-22T09:12:54;101167.91;;;22.64;51.74
74627;BME280;63132;52.268;5.192;2023-07-22T09:15:20;101159.72;;;22.20;52.42
74627;BME280;63132;52.268;5.192;2023-07-22T09:17:46;101162.59;;;22.19;52.89
74627;BME280;63132;52.268;5.192;2023-07-22T09:20:13;101162.41;;;21.98;53.11
74627;BME280;63132;52.268;5.192;2023-07-22T09:22:46;101178.94;;;21.58;54.83
74627;BME280;63132;52.268;5.192;2023-07-22T09:27:38;101170.69;;;22.34;53.11
74627;BME280;63132;52.268;5.192;2023-07-22T09:30:20;101163.53;;;22.26;53.60
74627;BME280;63132;52.268;5.192;2023-07-22T09:32:46;101171.22;;;21.85;55.54
74627;BME280;63132;52.268;5.192;2023-07-22T09:35:11;101169.03;;;21.65;59.08
74627;BME280;63132;52.268;5.192;2023-07-22T09:37:37;101161.19;;;21.10;60.45
74627;BME280;63132;52.268;5.192;2023-07-22T09:40:20;101166.41;;;20.97;61.30
74627;BME280;63132;52.268;5.192;2023-07-22T09:42:53;101176.16;;;20.59;62.14
74627;BME280;63132;52.268;5.192;2023-07-22T09:45:24;101182.97;;;20.23;64.22
74627;BME280;63132;52.268;5.192;2023-07-22T09:47:51;101185.03;;;20.13;63.48
74627;BME280;63132;52.268;5.192;2023-07-22T09:50:22;101195.81;;;20.21;64.88
74627;BME280;63132;52.268;5.192;2023-07-22T09:52:58;101173.09;;;20.07;67.34
74627;BME280;63132;52.268;5.192;2023-07-22T09:55:28;101181.22;;;19.98;68.39
74627;BME280;63132;52.268;5.192;2023-07-22T09:58:01;101185.09;;;19.56;75.57
74627;BME280;63132;52.268;5.192;2023-07-22T10:00:30;64071.53;;;-148.47;100.00
74627;BME280;63132;52.268;5.192;2023-07-22T10:02:57;64071.53;;;-148.47;100.00
74627;BME280;63132;52.268;5.192;2023-07-22T10:05:24;64071.53;;;-148.47;100.00
74627;BME280;63132;52.268;5.192;2023-07-22T10:07:52;64071.53;;;-148.47;100.00
74627;BME280;63132;52.268;5.192;2023-07-22T10:10:23;64071.53;;;-148.47;100.00
74627;BME280;63132;52.268;5.192;2023-07-22T10:12:50;64071.53;;;-148.47;100.00
74627;BME280;63132;52.268;5.192;2023-07-22T10:15:16;64071.53;;;-148.47;100.00
74627;BME280;63132;52.268;5.192;2023-07-22T10:17:45;64071.53;;;-148.47;100.00
74627;BME280;63132;52.268;5.192;2023-07-22T10:20:12;64071.53;;;-148.47;100.00
74627;BME280;63132;52.268;5.192;2023-07-22T10:22:44;64071.53;;;-148.47;100.00
74627;BME280;63132;52.268;5.192;2023-07-22T10:25:12;64071.53;;;-148.47;100.00
74627;BME280;63132;52.268;5.192;2023-07-22T10:27:39;64071.53;;;-148.47;100.00
74627;BME280;63132;52.268;5.192;2023-07-22T10:30:06;64071.53;;;-148.47;100.00
74627;BME280;63132;52.268;5.192;2023-07-22T10:32:33;64071.53;;;-148.47;100.00
74627;BME280;63132;52.268;5.192;2023-07-22T10:35:00;64071.53;;;-148.47;100.00
74627;BME280;63132;52.268;5.192;2023-07-22T10:37:34;64071.53;;;-148.47;100.00
74627;BME280;63132;52.268;5.192;2023-07-22T10:40:01;64071.53;;;-148.47;100.00
74627;BME280;63132;52.268;5.192;2023-07-22T10:42:41;64071.53;;;-148.47;100.00
74627;BME280;63132;52.268;5.192;2023-07-22T10:45:23;64071.53;;;-148.47;100.00
74627;BME280;63132;52.268;5.192;2023-07-22T10:48:00;64071.53;;;-148.47;100.00
74627;BME280;63132;52.268;5.192;2023-07-22T10:50:38;64071.53;;;-148.47;100.00
74627;BME280;63132;52.268;5.192;2023-07-22T10:53:04;64071.53;;;-148.47;100.00
74627;BME280;63132;52.268;5.192;2023-07-22T10:55:30;64071.53;;;-148.47;100.00
74627;BME280;63132;52.268;5.192;2023-07-22T10:57:55;64071.53;;;-148.47;100.00
74627;BME280;63132;52.268;5.192;2023-07-22T11:00:21;64071.53;;;-148.47;100.00
74627;BME280;63132;52.268;5.192;2023-07-22T11:03:11;64071.53;;;-148.47;100.00
74627;BME280;63132;52.268;5.192;2023-07-22T11:05:47;64071.53;;;-148.47;100.00
74627;BME280;63132;52.268;5.192;2023-07-22T11:08:13;64071.53;;;-148.47;100.00
74627;BME280;63132;52.268;5.192;2023-07-22T11:10:52;64071.53;;;-148.47;100.00
74627;BME280;63132;52.268;5.192;2023-07-22T11:13:18;64071.53;;;-148.47;100.00
74627;BME280;63132;52.268;5.192;2023-07-22T11:15:48;64071.53;;;-148.47;100.00
74627;BME280;63132;52.268;5.192;2023-07-22T11:18:13;64071.53;;;-148.47;100.00
74627;BME280;63132;52.268;5.192;2023-07-22T11:20:39;64071.53;;;-148.47;100.00
74627;BME280;63132;52.268;5.192;2023-07-22T11:23:04;64071.53;;;-148.47;100.00
74627;BME280;63132;52.268;5.192;2023-07-22T11:25:33;64071.53;;;-148.47;100.00
74627;BME280;63132;52.268;5.192;2023-07-22T11:27:59;64071.53;;;-148.47;100.00
74627;BME280;63132;52.268;5.192;2023-07-22T11:30:26;64071.53;;;-148.47;100.00
74627;BME280;63132;52.268;5.192;2023-07-22T11:32:52;64071.53;;;-148.47;100.00
74627;BME280;63132;52.268;5.192;2023-07-22T11:35:17;64071.53;;;-148.47;100.00
74627;BME280;63132;52.268;5.192;2023-07-22T11:37:44;64071.53;;;-148.47;100.00
74627;BME280;63132;52.268;5.192;2023-07-22T11:40:11;64071.53;;;-148.47;100.00
74627;BME280;63132;52.268;5.192;2023-07-22T11:42:38;64071.53;;;-148.47;100.00
74627;BME280;63132;52.268;5.192;2023-07-22T11:45:05;64071.53;;;-148.47;100.00
74627;BME280;63132;52.268;5.192;2023-07-22T11:47:31;64071.53;;;-148.47;100.00
74627;BME280;63132;52.268;5.192;2023-07-22T11:49:56;64071.53;;;-148.47;100.00
74627;BME280;63132;52.268;5.192;2023-07-22T11:52:22;64071.53;;;-148.47;100.00
74627;BME280;63132;52.268;5.192;2023-07-22T11:54:47;64071.53;;;-148.47;100.00
74627;BME280;63132;52.268;5.192;2023-07-22T11:57:17;64071.53;;;-148.47;100.00
74627;BME280;63132;52.268;5.192;2023-07-22T11:59:47;64071.53;;;-148.47;100.00
74627;BME280;63132;52.268;5.192;2023-07-22T12:02:18;64071.53;;;-148.47;100.00
74627;BME280;63132;52.268;5.192;2023-07-22T12:05:03;64071.53;;;-148.47;100.00
74627;BME280;63132;52.268;5.192;2023-07-22T12:07:35;64071.53;;;-148.47;100.00
74627;BME280;63132;52.268;5.192;2023-07-22T12:10:02;64071.53;;;-148.47;100.00
74627;BME280;63132;52.268;5.192;2023-07-22T12:12:36;64071.53;;;-148.47;100.00
74627;BME280;63132;52.268;5.192;2023-07-22T12:15:08;64071.53;;;-148.47;100.00
74627;BME280;63132;52.268;5.192;2023-07-22T12:18:03;64071.53;;;-148.47;100.00
74627;BME280;63132;52.268;5.192;2023-07-22T12:20:34;64071.53;;;-148.47;100.00
74627;BME280;63132;52.268;5.192;2023-07-22T12:23:00;64071.53;;;-148.47;100.00
74627;BME280;63132;52.268;5.192;2023-07-22T12:25:26;64071.53;;;-148.47;100.00
74627;BME280;63132;52.268;5.192;2023-07-22T12:27:52;64071.53;;;-148.47;100.00
74627;BME280;63132;52.268;5.192;2023-07-22T12:30:17;64071.53;;;-148.47;100.00
74627;BME280;63132;52.268;5.192;2023-07-22T12:32:43;64071.53;;;-148.47;100.00
74627;BME280;63132;52.268;5.192;2023-07-22T12:35:09;64071.53;;;-148.47;100.00
74627;BME280;63132;52.268;5.192;2023-07-22T12:37:35;64071.53;;;-148.47;100.00
74627;BME280;63132;52.268;5.192;2023-07-22T12:40:01;64071.53;;;-148.47;100.00
74627;BME280;63132;52.268;5.192;2023-07-22T12:42:26;64071.53;;;-148.47;100.00
74627;BME280;63132;52.268;5.192;2023-07-22T12:44:52;64071.53;;;-148.47;100.00